Terminal Aerodrome Forecast
Issued by NWS

Home | Current Version | Previous Version | Text Only | Print | Product List | Glossary Off
Versions: 1 2 3 4 5 6 7 8 9 10 11 12 13 14 15 16 17

000
FTUS42 KMHX 241123
TAFOAJ
TAF
KOAJ 241123Z 2412/2512 00000KT 1/4SM FG BKN005
     FM241300 02005KT P6SM SCT050
     FM251000 02003KT P6SM BKN015
      AMD LTD TO CLD VIS AND WIND=

USA.gov is the U.S. government's official web portal to all federal, state and local government web resources and services.